createdAt,value
2017-12-24T00:00:36.863Z,101486
2017-12-24T00:01:36.087Z,101489
2017-12-24T00:02:36.045Z,101479
2017-12-24T00:03:37.170Z,101491
2017-12-24T00:04:36.165Z,101499
2017-12-24T00:05:36.207Z,101492
2017-12-24T00:06:36.354Z,101496
2017-12-24T00:07:37.296Z,101480
2017-12-24T00:08:37.473Z,101502
2017-12-24T00:09:36.534Z,101496
2017-12-24T00:10:36.538Z,101496
2017-12-24T00:11:36.530Z,101499
2017-12-24T00:12:37.530Z,101480
2017-12-24T00:13:36.591Z,101488
2017-12-24T00:14:37.724Z,101485
2017-12-24T00:15:37.740Z,101484
2017-12-24T00:16:37.757Z,101500
2017-12-24T00:17:36.784Z,101488
2017-12-24T00:18:36.853Z,101493
2017-12-24T00:19:38.008Z,101484
2017-12-24T00:20:37.115Z,101502
2017-12-24T00:21:37.190Z,101495
2017-12-24T00:22:37.090Z,101501
2017-12-24T00:23:38.113Z,101495
2017-12-24T00:24:38.283Z,101491
2017-12-24T00:25:38.347Z,101488
2017-12-24T00:26:37.390Z,101495
2017-12-24T00:27:37.483Z,101480
2017-12-24T00:28:37.435Z,101486
2017-12-24T00:29:38.545Z,101483
2017-12-24T00:30:37.550Z,101476
2017-12-24T00:31:38.710Z,101469
2017-12-24T00:32:38.629Z,101480
2017-12-24T00:33:37.843Z,101490
2017-12-24T00:34:37.835Z,101480
2017-12-24T00:35:38.858Z,101486
2017-12-24T00:36:38.908Z,101469
2017-12-24T00:37:37.844Z,101477
2017-12-24T00:38:38.843Z,101480
2017-12-24T00:39:38.918Z,101477
2017-12-24T00:40:38.069Z,101485
2017-12-24T00:41:38.100Z,101479
2017-12-24T00:42:38.196Z,101478
2017-12-24T00:43:38.159Z,101483
2017-12-24T00:44:38.227Z,101493
2017-12-24T00:45:39.413Z,101484
2017-12-24T00:46:39.404Z,101490
2017-12-24T00:47:38.326Z,101494
2017-12-24T00:48:38.477Z,101491
2017-12-24T00:49:38.457Z,101494
2017-12-24T00:50:38.527Z,101496
2017-12-24T00:51:38.553Z,101487
2017-12-24T00:52:39.525Z,101495
2017-12-24T00:53:38.603Z,101493
2017-12-24T00:54:38.751Z,101489
2017-12-24T00:55:38.812Z,101493
2017-12-24T00:56:38.799Z,101480
2017-12-24T00:57:38.823Z,101478
2017-12-24T00:58:38.913Z,101476
2017-12-24T00:59:39.965Z,101470
2017-12-24T01:00:39.096Z,101472
2017-12-24T01:01:39.083Z,101468
2017-12-24T01:02:39.220Z,101463
2017-12-24T01:03:40.133Z,101467
2017-12-24T01:04:40.238Z,101465
2017-12-24T01:05:40.273Z,101464
2017-12-24T01:06:39.347Z,101465
2017-12-24T01:07:39.400Z,101466
2017-12-24T01:08:40.559Z,101464
2017-12-24T01:09:40.621Z,101465
2017-12-24T01:10:39.600Z,101466
2017-12-24T01:11:40.677Z,101453
2017-12-24T01:12:39.788Z,101466
2017-12-24T01:13:39.860Z,101466
2017-12-24T01:14:39.794Z,101473
2017-12-24T01:15:40.917Z,101469
2017-12-24T01:16:40.811Z,101476
2017-12-24T01:17:39.986Z,101473
2017-12-24T01:18:41.043Z,101469
2017-12-24T01:19:39.993Z,101477
2017-12-24T01:20:40.123Z,101476
2017-12-24T01:21:41.001Z,101477
2017-12-24T01:22:40.231Z,101476
2017-12-24T01:23:40.147Z,101478
2017-12-24T01:24:41.121Z,101481
2017-12-24T01:25:41.175Z,101481
2017-12-24T01:26:40.225Z,101466
2017-12-24T01:27:40.286Z,101470
2017-12-24T01:28:40.431Z,101473
2017-12-24T01:29:40.363Z,101470
2017-12-24T01:30:40.473Z,101461
2017-12-24T01:31:41.510Z,101454
2017-12-24T01:32:40.454Z,101462
2017-12-24T01:33:40.423Z,101455
2017-12-24T01:34:40.488Z,101460
2017-12-24T01:35:40.614Z,101456
2017-12-24T01:36:41.618Z,101452
2017-12-24T01:37:40.571Z,101454
2017-12-24T01:38:40.765Z,101458
2017-12-24T01:39:40.695Z,101447
2017-12-24T01:40:40.876Z,101446
2017-12-24T01:41:40.884Z,101450
2017-12-24T01:42:41.954Z,101447
2017-12-24T01:43:41.054Z,101453
2017-12-24T01:44:41.022Z,101446
2017-12-24T01:45:41.098Z,101449
2017-12-24T01:46:41.187Z,101444
2017-12-24T01:47:42.137Z,101443
2017-12-24T01:48:42.122Z,101436
2017-12-24T01:49:41.347Z,101438
2017-12-24T01:50:41.399Z,101436
2017-12-24T01:51:41.461Z,101434
2017-12-24T01:52:42.512Z,101437
2017-12-24T01:53:41.543Z,101432
2017-12-24T01:54:41.698Z,101431
2017-12-24T01:55:42.714Z,101438
2017-12-24T01:56:41.666Z,101444
2017-12-24T01:57:42.649Z,101447
2017-12-24T01:58:41.696Z,101454
2017-12-24T01:59:41.755Z,101455
2017-12-24T02:00:42.920Z,101461
2017-12-24T02:01:41.967Z,101456
2017-12-24T02:02:41.970Z,101460
2017-12-24T02:03:42.026Z,101462
2017-12-24T02:04:42.044Z,101458
2017-12-24T02:05:43.146Z,101465
2017-12-24T02:06:42.253Z,101469
2017-12-24T02:07:43.297Z,101464
2017-12-24T02:08:42.295Z,101454
2017-12-24T02:09:43.271Z,101453
2017-12-24T02:10:42.330Z,101461
2017-12-24T02:11:43.404Z,101468
2017-12-24T02:12:42.482Z,101473
2017-12-24T02:13:42.374Z,101470
2017-12-24T02:14:43.458Z,101471
2017-12-24T02:15:42.677Z,101470
2017-12-24T02:16:42.666Z,101476
2017-12-24T02:17:43.718Z,101469
2017-12-24T02:18:42.837Z,101467
2017-12-24T02:19:42.845Z,101470
2017-12-24T02:20:43.027Z,101467
2017-12-24T02:21:42.934Z,101468
2017-12-24T02:22:43.077Z,101473
2017-12-24T02:23:42.849Z,101462
2017-12-24T02:24:42.977Z,101471
2017-12-24T02:25:43.147Z,101473
2017-12-24T02:26:43.037Z,101474
2017-12-24T02:27:44.068Z,101474
2017-12-24T02:28:44.164Z,101479
2017-12-24T02:29:44.313Z,101474
2017-12-24T02:30:44.209Z,101480
2017-12-24T02:31:43.536Z,101471
2017-12-24T02:32:44.587Z,101466
2017-12-24T02:33:44.484Z,101479
2017-12-24T02:34:43.690Z,101477
2017-12-24T02:35:43.604Z,101472
2017-12-24T02:36:43.654Z,101469
2017-12-24T02:37:44.662Z,101470
2017-12-24T02:38:43.724Z,101472
2017-12-24T02:39:43.816Z,101471
2017-12-24T02:40:43.863Z,101468
2017-12-24T02:41:44.819Z,101466
2017-12-24T02:42:44.048Z,101468
2017-12-24T02:43:43.982Z,101468
2017-12-24T02:44:44.022Z,101463
2017-12-24T02:45:45.133Z,101462
2017-12-24T02:46:44.251Z,101454
2017-12-24T02:47:45.207Z,101469
2017-12-24T02:48:44.186Z,101465
2017-12-24T02:49:45.495Z,101465
2017-12-24T02:50:44.438Z,101461
2017-12-24T02:51:45.374Z,101454
2017-12-24T02:52:45.454Z,101463
2017-12-24T02:53:45.772Z,101465
2017-12-24T02:54:44.676Z,101465
2017-12-24T02:55:44.766Z,101465
2017-12-24T02:56:44.896Z,101455
2017-12-24T02:57:45.879Z,101458
2017-12-24T02:58:44.881Z,101450
2017-12-24T02:59:44.913Z,101456
2017-12-24T03:00:45.935Z,101453
2017-12-24T03:01:46.117Z,101443
2017-12-24T03:02:45.067Z,101444
2017-12-24T03:03:46.077Z,101446
2017-12-24T03:04:45.224Z,101450
2017-12-24T03:05:46.261Z,101446
2017-12-24T03:06:46.309Z,101441
2017-12-24T03:07:46.343Z,101443
2017-12-24T03:08:46.442Z,101438
2017-12-24T03:09:45.386Z,101437
2017-12-24T03:10:45.435Z,101436
2017-12-24T03:11:45.439Z,101435
2017-12-24T03:12:46.564Z,101433
2017-12-24T03:13:45.585Z,101425
2017-12-24T03:14:45.774Z,101429
2017-12-24T03:15:46.830Z,101416
2017-12-24T03:16:45.839Z,101424
2017-12-24T03:17:46.941Z,101422
2017-12-24T03:18:45.856Z,101428
2017-12-24T03:19:45.896Z,101426
2017-12-24T03:20:46.935Z,101423
2017-12-24T03:21:46.176Z,101418
2017-12-24T03:22:47.145Z,101416
2017-12-24T03:23:47.183Z,101407
2017-12-24T03:24:46.128Z,101409
2017-12-24T03:25:47.242Z,101426
2017-12-24T03:26:46.254Z,101418
2017-12-24T03:27:46.279Z,101418
2017-12-24T03:28:46.310Z,101420
2017-12-24T03:29:47.414Z,101419
2017-12-24T03:30:46.485Z,101429
2017-12-24T03:31:46.479Z,101423
2017-12-24T03:32:46.565Z,101414
2017-12-24T03:33:47.632Z,101426
2017-12-24T03:34:47.735Z,101407
2017-12-24T03:35:47.775Z,101416
2017-12-24T03:36:46.888Z,101408
2017-12-24T03:37:46.851Z,101407
2017-12-24T03:38:47.035Z,101410
2017-12-24T03:39:46.960Z,101418
2017-12-24T03:40:47.024Z,101416
2017-12-24T03:41:47.204Z,101418
2017-12-24T03:42:48.155Z,101418
2017-12-24T03:43:47.220Z,101411
2017-12-24T03:44:47.264Z,101412
2017-12-24T03:45:47.330Z,101408
2017-12-24T03:46:47.446Z,101411
2017-12-24T03:47:47.363Z,101405
2017-12-24T03:48:47.517Z,101405
2017-12-24T03:49:47.531Z,101411
2017-12-24T03:50:48.580Z,101408
2017-12-24T03:51:48.623Z,101407
2017-12-24T03:52:47.613Z,101407
2017-12-24T03:53:47.775Z,101406
2017-12-24T03:54:47.727Z,101403
2017-12-24T03:55:48.786Z,101417
2017-12-24T03:56:48.766Z,101396
2017-12-24T03:57:47.897Z,101407
2017-12-24T03:58:48.905Z,101405
2017-12-24T03:59:49.029Z,101397
2017-12-24T04:00:48.035Z,101404
2017-12-24T04:01:49.050Z,101406
2017-12-24T04:02:48.177Z,101395
2017-12-24T04:03:48.286Z,101400
2017-12-24T04:04:48.291Z,101399
2017-12-24T04:05:49.270Z,101402
2017-12-24T04:06:48.316Z,101406
2017-12-24T04:07:48.290Z,101400
2017-12-24T04:08:48.380Z,101396
2017-12-24T04:09:49.480Z,101395
2017-12-24T04:10:49.541Z,101401
2017-12-24T04:11:49.607Z,101391
2017-12-24T04:12:49.688Z,101401
2017-12-24T04:13:49.542Z,101398
2017-12-24T04:14:48.663Z,101394
2017-12-24T04:15:48.768Z,101394
2017-12-24T04:16:49.700Z,101397
2017-12-24T04:17:48.758Z,101391
2017-12-24T04:18:48.854Z,101399
2017-12-24T04:19:48.997Z,101395
2017-12-24T04:20:48.888Z,101397
2017-12-24T04:21:49.949Z,101397
2017-12-24T04:22:49.054Z,101398
2017-12-24T04:23:49.066Z,101400
2017-12-24T04:24:49.099Z,101395
2017-12-24T04:25:50.101Z,101396
2017-12-24T04:26:50.310Z,101394
2017-12-24T04:27:49.390Z,101392
2017-12-24T04:28:50.245Z,101395
2017-12-24T04:29:50.341Z,101390
2017-12-24T04:30:49.429Z,101383
2017-12-24T04:31:49.481Z,101388
2017-12-24T04:32:49.614Z,101390
2017-12-24T04:33:50.596Z,101390
2017-12-24T04:34:50.544Z,101385
2017-12-24T04:35:49.625Z,101388
2017-12-24T04:36:49.669Z,101387
2017-12-24T04:37:49.716Z,101392
2017-12-24T04:38:50.765Z,101387
2017-12-24T04:39:49.839Z,101392
2017-12-24T04:40:50.002Z,101388
2017-12-24T04:41:49.989Z,101387
2017-12-24T04:42:50.062Z,101389
2017-12-24T04:43:50.216Z,101388
2017-12-24T04:44:50.177Z,101392
2017-12-24T04:45:51.316Z,101389
2017-12-24T04:46:50.277Z,101391
2017-12-24T04:47:50.308Z,101397
2017-12-24T04:48:50.339Z,101392
2017-12-24T04:49:50.344Z,101388
2017-12-24T04:50:50.416Z,101386
2017-12-24T04:51:50.549Z,101387
2017-12-24T04:52:51.532Z,101381
2017-12-24T04:53:50.601Z,101386
2017-12-24T04:54:50.583Z,101385
2017-12-24T04:55:51.633Z,101384
2017-12-24T04:56:50.776Z,101389
2017-12-24T04:57:50.752Z,101377
2017-12-24T04:58:50.858Z,101371
2017-12-24T04:59:50.841Z,101375
2017-12-24T05:00:50.906Z,101370
2017-12-24T05:01:52.084Z,101373
2017-12-24T05:02:52.033Z,101365
2017-12-24T05:03:52.239Z,101375
2017-12-24T05:04:52.238Z,101378
2017-12-24T05:05:51.236Z,101378
2017-12-24T05:06:51.274Z,101375
2017-12-24T05:07:51.293Z,101376
2017-12-24T05:08:51.321Z,101381
2017-12-24T05:09:51.353Z,101382
2017-12-24T05:10:52.275Z,101382
2017-12-24T05:11:51.379Z,101382
2017-12-24T05:12:51.425Z,101389
2017-12-24T05:13:51.543Z,101382
2017-12-24T05:14:51.551Z,101387
2017-12-24T05:15:52.417Z,101388
2017-12-24T05:16:52.595Z,101390
2017-12-24T05:17:52.526Z,101388
2017-12-24T05:18:51.573Z,101387
2017-12-24T05:19:52.704Z,101389
2017-12-24T05:20:52.747Z,101386
2017-12-24T05:21:51.706Z,101381
2017-12-24T05:22:51.761Z,101383
2017-12-24T05:23:52.894Z,101379
2017-12-24T05:24:52.937Z,101378
2017-12-24T05:25:52.053Z,101376
2017-12-24T05:26:51.975Z,101374
2017-12-24T05:27:53.102Z,101383
2017-12-24T05:28:52.108Z,101362
2017-12-24T05:29:53.221Z,101365
2017-12-24T05:30:53.296Z,101364
2017-12-24T05:31:52.396Z,101371
2017-12-24T05:32:52.322Z,101369
2017-12-24T05:33:52.469Z,101378
2017-12-24T05:34:53.527Z,101376
2017-12-24T05:35:53.444Z,101369
2017-12-24T05:36:52.572Z,101380
2017-12-24T05:37:53.482Z,101369
2017-12-24T05:38:52.694Z,101377
2017-12-24T05:39:53.750Z,101370
2017-12-24T05:40:53.720Z,101375
2017-12-24T05:41:52.880Z,101374
2017-12-24T05:42:52.991Z,101369
2017-12-24T05:43:52.978Z,101368
2017-12-24T05:44:53.118Z,101367
2017-12-24T05:45:53.179Z,101365
2017-12-24T05:46:53.178Z,101369
2017-12-24T05:47:53.162Z,101360
2017-12-24T05:48:54.134Z,101365
2017-12-24T05:49:54.248Z,101358
2017-12-24T05:50:53.268Z,101360
2017-12-24T05:51:53.281Z,101362
2017-12-24T05:52:53.184Z,101355
2017-12-24T05:53:54.322Z,101353
2017-12-24T05:54:54.354Z,101358
2017-12-24T05:55:53.277Z,101353
2017-12-24T05:56:53.298Z,101351
2017-12-24T05:57:53.390Z,101346
2017-12-24T05:58:54.549Z,101350
2017-12-24T05:59:53.547Z,101346
2017-12-24T06:00:54.641Z,101348
2017-12-24T06:01:53.563Z,101351
2017-12-24T06:02:53.685Z,101349
2017-12-24T06:03:54.746Z,101356
2017-12-24T06:04:54.720Z,101351
2017-12-24T06:05:53.827Z,101351
2017-12-24T06:06:53.917Z,101352
2017-12-24T06:07:53.964Z,101353
2017-12-24T06:08:55.019Z,101354
2017-12-24T06:09:54.117Z,101360
2017-12-24T06:10:55.135Z,101353
2017-12-24T06:11:55.234Z,101353
2017-12-24T06:12:54.226Z,101351
2017-12-24T06:13:54.308Z,101351
2017-12-24T06:14:54.374Z,101351
2017-12-24T06:16:54.368Z,101351
2017-12-24T06:17:54.506Z,101345
2017-12-24T06:18:55.497Z,101348
2017-12-24T06:19:55.485Z,101347
2017-12-24T06:20:54.472Z,101343
2017-12-24T06:21:54.554Z,101345
2017-12-24T06:22:54.556Z,101345
2017-12-24T06:23:55.701Z,101335
2017-12-24T06:24:55.741Z,101344
2017-12-24T06:25:55.743Z,101334
2017-12-24T06:26:54.707Z,101335
2017-12-24T06:27:54.720Z,101344
2017-12-24T06:28:55.744Z,101349
2017-12-24T06:29:54.924Z,101342
2017-12-24T06:30:54.977Z,101343
2017-12-24T06:31:55.028Z,101343
2017-12-24T06:32:54.928Z,101340
2017-12-24T06:33:55.931Z,101342
2017-12-24T06:34:56.127Z,101345
2017-12-24T06:35:56.065Z,101342
2017-12-24T06:36:55.174Z,101344
2017-12-24T06:37:55.273Z,101345
2017-12-24T06:38:55.211Z,101342
2017-12-24T06:39:55.392Z,101346
2017-12-24T06:40:55.360Z,101342
2017-12-24T06:41:55.561Z,101341
2017-12-24T06:42:55.532Z,101341
2017-12-24T06:43:56.612Z,101343
2017-12-24T06:44:56.535Z,101339
2017-12-24T06:45:55.727Z,101343
2017-12-24T06:46:56.762Z,101339
2017-12-24T06:47:56.742Z,101341
2017-12-24T06:48:55.774Z,101344
2017-12-24T06:49:55.874Z,101332
2017-12-24T06:50:55.892Z,101335
2017-12-24T06:51:55.883Z,101341
2017-12-24T06:52:56.020Z,101337
2017-12-24T06:53:56.044Z,101333
2017-12-24T06:54:55.954Z,101337
2017-12-24T06:55:57.010Z,101339
2017-12-24T06:56:57.076Z,101335
2017-12-24T06:57:56.200Z,101330
2017-12-24T06:58:56.292Z,101337
2017-12-24T06:59:57.312Z,101334
2017-12-24T07:00:56.366Z,101332
2017-12-24T07:01:57.479Z,101330
2017-12-24T07:02:57.423Z,101331
2017-12-24T07:03:57.556Z,101327
2017-12-24T07:04:57.647Z,101325
2017-12-24T07:05:57.529Z,101327
2017-12-24T07:06:56.688Z,101326
2017-12-24T07:07:57.764Z,101323
2017-12-24T07:08:56.895Z,101323
2017-12-24T07:09:57.911Z,101322
2017-12-24T07:10:56.944Z,101323
2017-12-24T07:11:56.936Z,101319
2017-12-24T07:12:58.064Z,101321
2017-12-24T07:13:57.948Z,101324
2017-12-24T07:14:57.027Z,101318
2017-12-24T07:15:57.092Z,101322
2017-12-24T07:16:57.226Z,101324
2017-12-24T07:17:58.291Z,101322
2017-12-24T07:18:58.373Z,101324
2017-12-24T07:19:58.278Z,101323
2017-12-24T07:20:57.392Z,101324
2017-12-24T07:21:57.575Z,101314
2017-12-24T07:22:57.564Z,101323
2017-12-24T07:23:57.729Z,101323
2017-12-24T07:24:57.667Z,101326
2017-12-24T07:25:57.923Z,101325
2017-12-24T07:26:58.955Z,101317
2017-12-24T07:27:57.865Z,101321
2017-12-24T07:28:57.901Z,101321
2017-12-24T07:29:57.910Z,101323
2017-12-24T07:30:57.928Z,101321
2017-12-24T07:31:58.110Z,101320
2017-12-24T07:32:58.028Z,101328
2017-12-24T07:33:59.203Z,101325
2017-12-24T07:34:58.161Z,101324
2017-12-24T07:35:58.314Z,101322
2017-12-24T07:36:58.406Z,101324
2017-12-24T07:37:58.424Z,101318
2017-12-24T07:38:58.367Z,101318
2017-12-24T07:39:58.400Z,101324
2017-12-24T07:40:58.616Z,101323
2017-12-24T07:41:59.617Z,101323
2017-12-24T07:42:58.605Z,101328
2017-12-24T07:43:59.739Z,101318
2017-12-24T07:44:58.659Z,101328
2017-12-24T07:45:58.698Z,101322
2017-12-24T07:46:58.810Z,101325
2017-12-24T07:47:59.867Z,101321
2017-12-24T07:48:58.970Z,101324
2017-12-24T07:49:59.143Z,101325
2017-12-24T07:50:59.243Z,101323
2017-12-24T07:51:59.322Z,101325
2017-12-24T07:52:59.392Z,101328
2017-12-24T07:54:00.450Z,101326
2017-12-24T07:55:00.549Z,101325
2017-12-24T07:56:00.662Z,101326
2017-12-24T07:57:00.703Z,101326
2017-12-24T07:57:59.643Z,101323
2017-12-24T07:58:59.801Z,101316
2017-12-24T07:59:59.752Z,101313
2017-12-24T08:01:00.794Z,101322
2017-12-24T08:01:59.903Z,101320
2017-12-24T08:02:59.916Z,101315
2017-12-24T08:04:01.061Z,101319
2017-12-24T08:05:00.102Z,101305
2017-12-24T08:06:01.128Z,101316
2017-12-24T08:07:00.354Z,101316
2017-12-24T08:08:00.417Z,101315
2017-12-24T08:09:01.408Z,101308
2017-12-24T08:10:00.307Z,101312
2017-12-24T08:11:00.387Z,101306
2017-12-24T08:12:00.398Z,101313
2017-12-24T08:13:01.580Z,101311
2017-12-24T08:14:01.658Z,101311
2017-12-24T08:15:00.694Z,101307
2017-12-24T08:16:01.672Z,101304
2017-12-24T08:17:01.683Z,101302
2017-12-24T08:18:01.624Z,101314
2017-12-24T08:19:01.807Z,101312
2017-12-24T08:20:00.812Z,101314
2017-12-24T08:21:01.844Z,101308
2017-12-24T08:22:00.946Z,101306
2017-12-24T08:23:01.127Z,101307
2017-12-24T08:24:02.219Z,101307
2017-12-24T08:25:01.128Z,101305
2017-12-24T08:26:02.222Z,101303
2017-12-24T08:27:01.240Z,101295
2017-12-24T08:28:01.356Z,101295
2017-12-24T08:29:01.368Z,101304
2017-12-24T08:30:01.394Z,101299
2017-12-24T08:31:01.454Z,101298
2017-12-24T08:32:01.643Z,101289
2017-12-24T08:33:02.703Z,101294
2017-12-24T08:34:02.711Z,101295
2017-12-24T08:35:01.759Z,101293
2017-12-24T08:36:02.935Z,101289
2017-12-24T08:37:01.973Z,101291
2017-12-24T08:38:01.932Z,101291
2017-12-24T08:39:03.062Z,101293
2017-12-24T08:40:02.052Z,101290
2017-12-24T08:41:02.085Z,101290
2017-12-24T08:42:02.149Z,101286
2017-12-24T08:43:02.184Z,101287
2017-12-24T08:44:02.256Z,101289
2017-12-24T08:45:02.310Z,101287
2017-12-24T08:46:02.453Z,101285
2017-12-24T08:47:03.452Z,101290
2017-12-24T08:48:03.468Z,101289
2017-12-24T08:49:02.593Z,101289
2017-12-24T08:50:03.557Z,101288
2017-12-24T08:51:02.609Z,101281
2017-12-24T08:52:02.613Z,101292
2017-12-24T08:53:03.662Z,101298
2017-12-24T08:54:02.711Z,101291
2017-12-24T08:55:02.775Z,101287
2017-12-24T08:56:02.601Z,101292
2017-12-24T08:57:03.769Z,101287
2017-12-24T08:58:02.688Z,101291
2017-12-24T08:59:02.781Z,101296
2017-12-24T09:00:02.812Z,101290
2017-12-24T09:01:02.850Z,101296
2017-12-24T09:02:02.916Z,101290
2017-12-24T09:03:03.019Z,101293
2017-12-24T09:04:03.150Z,101286
2017-12-24T09:05:03.102Z,101291
2017-12-24T09:06:03.138Z,101282
2017-12-24T09:07:04.245Z,101296
2017-12-24T09:08:03.199Z,101295
2017-12-24T09:09:03.369Z,101285
2017-12-24T09:10:03.415Z,101293
2017-12-24T09:11:04.430Z,101286
2017-12-24T09:12:03.507Z,101279
2017-12-24T09:13:03.399Z,101290
2017-12-24T09:14:04.454Z,101293
2017-12-24T09:15:04.483Z,101292
2017-12-24T09:16:03.577Z,101285
2017-12-24T09:17:03.663Z,101281
2017-12-24T09:18:03.737Z,101285
2017-12-24T09:19:04.758Z,101288
2017-12-24T09:20:04.867Z,101296
2017-12-24T09:21:04.929Z,101288
2017-12-24T09:22:03.893Z,101294
2017-12-24T09:23:04.083Z,101288
2017-12-24T09:24:03.982Z,101290
2017-12-24T09:25:05.111Z,101289
2017-12-24T09:26:04.068Z,101291
2017-12-24T09:27:05.175Z,101295
2017-12-24T09:28:04.282Z,101286
2017-12-24T09:29:05.186Z,101288
2017-12-24T09:30:04.381Z,101293
2017-12-24T09:31:04.408Z,101291
2017-12-24T09:32:04.371Z,101285
2017-12-24T09:33:04.509Z,101287
2017-12-24T09:34:05.581Z,101286
2017-12-24T09:35:04.539Z,101282
2017-12-24T09:36:04.555Z,101286
2017-12-24T09:37:05.696Z,101279
2017-12-24T09:38:05.625Z,101273
2017-12-24T09:39:04.681Z,101270
2017-12-24T09:40:04.855Z,101275
2017-12-24T09:41:04.907Z,101274
2017-12-24T09:42:04.875Z,101273
2017-12-24T09:43:05.992Z,101269
2017-12-24T09:44:04.940Z,101265
2017-12-24T09:45:05.004Z,101263
2017-12-24T09:46:05.179Z,101264
2017-12-24T09:47:06.234Z,101269
2017-12-24T09:48:06.303Z,101269
2017-12-24T09:49:05.411Z,101268
2017-12-24T09:50:06.370Z,101262
2017-12-24T09:51:06.356Z,101274
2017-12-24T09:52:06.479Z,101265
2017-12-24T09:53:05.459Z,101263
2017-12-24T09:54:05.610Z,101265
2017-12-24T09:55:06.613Z,101263
2017-12-24T09:56:05.621Z,101263
2017-12-24T09:57:05.675Z,101268
2017-12-24T09:58:05.756Z,101269
2017-12-24T09:59:06.867Z,101263
2017-12-24T10:00:05.915Z,101263
2017-12-24T10:01:05.814Z,101259
2017-12-24T10:02:05.904Z,101248
2017-12-24T10:03:05.967Z,101254
2017-12-24T10:04:06.139Z,101255
2017-12-24T10:05:06.073Z,101254
2017-12-24T10:06:07.188Z,101250
2017-12-24T10:07:07.231Z,101254
2017-12-24T10:08:06.295Z,101247
2017-12-24T10:09:06.318Z,101251
2017-12-24T10:10:06.396Z,101253
2017-12-24T10:11:06.282Z,101249
2017-12-24T10:12:06.329Z,101247
2017-12-24T10:13:06.488Z,101252
2017-12-24T10:14:07.540Z,101248
2017-12-24T10:15:07.583Z,101251
2017-12-24T10:16:07.528Z,101250
2017-12-24T10:17:07.525Z,101247
2017-12-24T10:18:06.556Z,101243
2017-12-24T10:19:06.681Z,101238
2017-12-24T10:20:07.712Z,101240
2017-12-24T10:21:07.597Z,101249
2017-12-24T10:23:06.735Z,101246
2017-12-24T10:24:07.860Z,101239
2017-12-24T10:25:07.932Z,101247
2017-12-24T10:26:07.908Z,101241
2017-12-24T10:27:07.008Z,101234
2017-12-24T10:28:08.024Z,101243
2017-12-24T10:29:07.109Z,101238
2017-12-24T10:30:07.282Z,101242
2017-12-24T10:31:07.409Z,101245
2017-12-24T10:32:07.393Z,101243
2017-12-24T10:33:07.337Z,101249
2017-12-24T10:34:08.379Z,101251
2017-12-24T10:35:08.522Z,101247
2017-12-24T10:36:07.629Z,101245
2017-12-24T10:37:08.680Z,101232
2017-12-24T10:38:07.724Z,101246
2017-12-24T10:39:07.730Z,101244
2017-12-24T10:40:07.886Z,101247
2017-12-24T10:41:07.800Z,101235
2017-12-24T10:42:07.859Z,101235
2017-12-24T10:43:07.983Z,101237
2017-12-24T10:44:08.070Z,101233
2017-12-24T10:45:09.042Z,101243
2017-12-24T10:46:09.089Z,101236
2017-12-24T10:47:08.062Z,101231
2017-12-24T10:48:08.123Z,101229
2017-12-24T10:49:09.196Z,101232
2017-12-24T10:50:08.320Z,101229
2017-12-24T10:51:08.361Z,101221
2017-12-24T10:52:08.292Z,101220
2017-12-24T10:53:09.400Z,101226
2017-12-24T10:54:08.411Z,101222
2017-12-24T10:55:09.532Z,101217
2017-12-24T10:56:09.570Z,101218
2017-12-24T10:57:08.642Z,101209
2017-12-24T10:58:08.571Z,101204
2017-12-24T10:59:08.745Z,101214
2017-12-24T11:00:08.739Z,101213
2017-12-24T11:01:09.828Z,101212
2017-12-24T11:02:08.879Z,101211
2017-12-24T11:03:08.908Z,101212
2017-12-24T11:04:08.917Z,101201
2017-12-24T11:05:08.970Z,101211
2017-12-24T11:06:10.088Z,101205
2017-12-24T11:07:10.045Z,101209
2017-12-24T11:08:09.129Z,101203
2017-12-24T11:09:10.235Z,101206
2017-12-24T11:10:09.204Z,101198
2017-12-24T11:11:10.364Z,101200
2017-12-24T11:12:09.433Z,101188
2017-12-24T11:13:10.350Z,101194
2017-12-24T11:14:09.458Z,101195
2017-12-24T11:15:10.624Z,101191
2017-12-24T11:16:10.554Z,101200
2017-12-24T11:17:09.588Z,101197
2017-12-24T11:18:10.669Z,101195
2017-12-24T11:19:10.701Z,101191
2017-12-24T11:20:10.695Z,101183
2017-12-24T11:21:09.828Z,101177
2017-12-24T11:22:09.817Z,101179
2017-12-24T11:23:10.851Z,101186
2017-12-24T11:24:09.990Z,101191
2017-12-24T11:25:10.001Z,101195
2017-12-24T11:26:10.092Z,101195
2017-12-24T11:27:10.060Z,101190
2017-12-24T11:28:10.169Z,101186
2017-12-24T11:29:10.193Z,101191
2017-12-24T11:30:10.254Z,101193
2017-12-24T11:31:11.283Z,101192
2017-12-24T11:32:10.295Z,101192
2017-12-24T11:33:11.420Z,101191
2017-12-24T11:34:11.410Z,101188
2017-12-24T11:35:10.486Z,101182
2017-12-24T11:36:10.544Z,101180
2017-12-24T11:37:10.673Z,101181
2017-12-24T11:38:10.627Z,101167
2017-12-24T11:39:10.786Z,101176
2017-12-24T11:40:10.891Z,101178
2017-12-24T11:41:10.885Z,101174
2017-12-24T11:42:12.029Z,101173
2017-12-24T11:43:11.156Z,101171
2017-12-24T11:44:12.145Z,101167
2017-12-24T11:45:11.279Z,101169
2017-12-24T11:46:11.342Z,101163
2017-12-24T11:47:11.288Z,101161
2017-12-24T11:48:11.354Z,101165
2017-12-24T11:49:12.385Z,101149
2017-12-24T11:50:11.581Z,101145
2017-12-24T11:51:11.500Z,101151
2017-12-24T11:52:11.578Z,101154
2017-12-24T11:53:11.612Z,101148
2017-12-24T11:54:12.792Z,101149
2017-12-24T11:55:11.787Z,101141
2017-12-24T11:56:12.829Z,101150
2017-12-24T11:57:12.723Z,101143
2017-12-24T11:58:12.790Z,101140
2017-12-24T11:59:11.940Z,101141
2017-12-24T12:00:11.908Z,101139
2017-12-24T12:01:12.087Z,101136
2017-12-24T12:02:13.098Z,101132
2017-12-24T12:03:12.067Z,101128
2017-12-24T12:04:13.165Z,101127
2017-12-24T12:05:13.185Z,101130
2017-12-24T12:06:13.106Z,101130
2017-12-24T12:07:13.290Z,101137
2017-12-24T12:08:13.307Z,101138
2017-12-24T12:09:13.284Z,101135
2017-12-24T12:10:12.418Z,101126
2017-12-24T12:11:13.453Z,101132
2017-12-24T12:12:12.562Z,101136
2017-12-24T12:13:12.591Z,101135
2017-12-24T12:14:12.626Z,101143
2017-12-24T12:15:12.676Z,101131
2017-12-24T12:16:13.671Z,101134
2017-12-24T12:17:12.779Z,101133
2017-12-24T12:18:13.886Z,101124
2017-12-24T12:19:12.893Z,101120
2017-12-24T12:20:14.004Z,101122
2017-12-24T12:21:13.057Z,101122
2017-12-24T12:22:14.036Z,101125
2017-12-24T12:23:14.009Z,101104
2017-12-24T12:24:14.196Z,101121
2017-12-24T12:25:14.138Z,101113
2017-12-24T12:26:14.217Z,101119
2017-12-24T12:27:14.426Z,101106
2017-12-24T12:28:13.410Z,101123
2017-12-24T12:29:14.483Z,101114
2017-12-24T12:30:13.549Z,101113
2017-12-24T12:31:13.529Z,101116